Time;durP1;ratioP1;P1;durP2;ratioP2;P2;SDS_P1;SDS_P2;PMS_P1;PMS_P2;Temp;Humidity;BMP_temperature;BMP_pressure;BME280_temperature;BME280_humidity;BME280_pressure;Samples;Min_cycle;Max_cycle;Signal;HPM_P1;HPM_P2
2022/03/04 00:01:10;;;;;;;24.13;13.07;;;1.40;99.90;;;;;;4994681;28;20038;-79
2022/03/04 00:03:37;;;;;;;19.63;11.88;;;1.20;99.90;;;;;;4994515;28;20497;-79
2022/03/04 00:06:02;;;;;;;23.95;12.27;;;1.20;99.90;;;;;;4978621;28;20125;-79
2022/03/04 00:08:28;;;;;;;22.48;12.75;;;1.10;99.90;;;;;;4977859;28;20077;-79
2022/03/04 00:10:54;;;;;;;22.02;12.30;;;1.10;99.90;;;;;;4978505;28;20660;-79
2022/03/04 00:13:19;;;;;;;22.10;12.10;;;1.10;99.90;;;;;;4978067;28;20135;-79
2022/03/04 00:15:45;;;;;;;23.95;13.07;;;1.10;99.90;;;;;;4994122;28;20101;-79
2022/03/04 00:18:11;;;;;;;20.92;12.23;;;1.20;99.90;;;;;;4994211;28;20489;-79
2022/03/04 00:20:36;;;;;;;21.27;12.68;;;1.00;99.90;;;;;;4994028;28;20184;-79
2022/03/04 00:23:03;;;;;;;20.95;12.70;;;1.10;99.90;;;;;;4960964;28;20410;-79
2022/03/04 00:25:29;;;;;;;20.75;11.90;;;1.00;99.90;;;;;;4994143;28;20042;-79
2022/03/04 00:27:55;;;;;;;21.75;12.65;;;1.10;99.90;;;;;;4977895;28;20034;-79
2022/03/04 00:30:20;;;;;;;23.63;12.70;;;0.90;99.90;;;;;;4977937;28;20482;-79
2022/03/04 00:32:46;;;;;;;23.75;12.27;;;0.80;99.90;;;;;;4977867;28;20046;-79
2022/03/04 00:35:13;;;;;;;23.77;13.27;;;0.90;99.90;;;;;;4993058;28;20053;-79
2022/03/04 00:37:39;;;;;;;22.92;13.45;;;1.30;99.90;;;;;;4976930;28;20050;-79
2022/03/04 00:40:06;;;;;;;22.35;12.65;;;1.00;99.90;;;;;;4961652;28;20092;-79
2022/03/04 00:42:31;;;;;;;24.75;13.68;;;0.90;99.90;;;;;;4977157;28;20043;-79
2022/03/04 00:44:57;;;;;;;24.30;13.05;;;0.80;99.90;;;;;;4961662;28;20461;-79
2022/03/04 00:47:23;;;;;;;24.27;12.82;;;0.70;99.90;;;;;;4977315;28;20038;-79
2022/03/04 00:49:49;;;;;;;21.67;12.38;;;0.80;99.90;;;;;;4993538;28;20485;-79
2022/03/04 00:52:14;;;;;;;21.90;13.05;;;0.70;99.90;;;;;;4960105;28;20539;-79
2022/03/04 00:54:41;;;;;;;23.80;13.23;;;0.70;99.90;;;;;;4993107;28;20402;-79
2022/03/04 00:57:06;;;;;;;24.85;14.40;;;0.70;99.90;;;;;;4977249;28;20119;-79
2022/03/04 00:59:32;;;;;;;22.20;12.70;;;0.70;99.90;;;;;;4993743;28;20495;-79
2022/03/04 01:01:58;;;;;;;25.27;13.80;;;0.60;99.90;;;;;;4976808;28;20133;-79
2022/03/04 01:04:24;;;;;;;24.25;13.73;;;0.60;99.90;;;;;;4993296;28;20405;-79
2022/03/04 01:06:50;;;;;;;24.45;14.23;;;0.60;99.90;;;;;;4992287;28;20490;-79
2022/03/04 01:09:16;;;;;;;25.25;13.55;;;0.60;99.90;;;;;;4977262;28;20045;-79
2022/03/04 01:11:41;;;;;;;21.40;13.18;;;0.50;99.90;;;;;;4977249;28;20477;-79
2022/03/04 01:14:08;;;;;;;21.55;12.63;;;0.50;99.90;;;;;;4993033;28;20045;-79
2022/03/04 01:16:34;;;;;;;24.10;13.95;;;0.50;99.90;;;;;;4993280;28;20433;-79
2022/03/04 01:19:01;;;;;;;24.50;13.55;;;0.60;99.90;;;;;;4961473;28;20046;-79
2022/03/04 01:21:27;;;;;;;23.52;13.65;;;0.40;99.90;;;;;;4992385;28;20049;-79
2022/03/04 01:23:53;;;;;;;24.90;14.48;;;0.50;99.90;;;;;;4976839;28;20074;-79
2022/03/04 01:26:18;;;;;;;22.42;12.65;;;0.50;99.90;;;;;;4992874;28;20070;-79
2022/03/04 01:28:44;;;;;;;25.58;14.48;;;0.50;99.90;;;;;;4993735;28;20041;-79
2022/03/04 01:31:12;;;;;;;24.20;14.38;;;0.50;99.90;;;;;;4993235;28;20129;-79
2022/03/04 01:33:39;;;;;;;26.33;14.77;;;0.40;99.90;;;;;;4977366;28;20050;-79
2022/03/04 01:36:05;;;;;;;25.75;14.05;;;0.40;99.90;;;;;;4993633;28;20493;-79
2022/03/04 01:38:31;;;;;;;24.95;13.43;;;0.30;99.90;;;;;;4976560;28;20374;-79
2022/03/04 01:40:56;;;;;;;27.70;16.52;;;0.40;99.90;;;;;;4993164;28;20125;-79
2022/03/04 01:43:23;;;;;;;25.63;14.57;;;0.30;99.90;;;;;;4992935;28;20038;-79
2022/03/04 01:45:48;;;;;;;30.67;16.25;;;0.20;99.90;;;;;;4976840;28;20080;-79
2022/03/04 01:48:14;;;;;;;31.98;17.20;;;0.20;99.90;;;;;;4992462;28;20493;-79
2022/03/04 01:50:40;;;;;;;30.13;16.98;;;0.20;99.90;;;;;;4992573;28;20129;-79
2022/03/04 01:53:06;;;;;;;30.02;16.23;;;0.20;99.90;;;;;;4959182;28;20073;-79
2022/03/04 01:55:32;;;;;;;26.25;13.90;;;0.10;99.90;;;;;;4992465;28;20054;-79
2022/03/04 01:57:58;;;;;;;28.48;15.75;;;0.10;99.90;;;;;;4976176;28;20054;-79
2022/03/04 02:00:24;;;;;;;28.08;15.18;;;0.10;99.90;;;;;;4976575;28;20482;-79
2022/03/04 02:02:50;;;;;;;28.60;15.25;;;0.10;99.90;;;;;;4992517;28;20504;-79
2022/03/04 02:05:17;;;;;;;26.05;14.95;;;0.60;99.90;;;;;;4976676;28;20081;-79
2022/03/04 02:07:43;;;;;;;31.30;17.00;;;0.10;99.90;;;;;;4991779;28;20412;-79
2022/03/04 02:10:10;;;;;;;31.02;16.25;;;0.10;99.90;;;;;;4993039;28;20037;-79
2022/03/04 02:12:39;;;;;;;29.83;16.70;;;0.00;99.90;;;;;;5008760;28;20049;-79
2022/03/04 02:15:05;;;;;;;30.67;16.48;;;0.00;99.90;;;;;;4992580;28;20046;-79
2022/03/04 02:17:31;;;;;;;30.10;17.05;;;0.10;99.90;;;;;;4993158;28;20042;-79
2022/03/04 02:19:58;;;;;;;33.30;18.42;;;0.00;99.90;;;;;;4976670;28;20517;-79
2022/03/04 02:22:24;;;;;;;28.30;16.05;;;0.00;99.90;;;;;;4991559;28;20052;-79
2022/03/04 02:24:49;;;;;;;33.80;17.70;;;0.20;99.90;;;;;;4992671;28;20043;-79
2022/03/04 02:27:15;;;;;;;30.33;17.27;;;-0.10;99.90;;;;;;4976357;28;20038;-79
2022/03/04 02:29:41;;;;;;;30.85;17.02;;;-0.10;99.90;;;;;;4992689;28;20061;-79
2022/03/04 02:32:07;;;;;;;31.95;16.70;;;-0.10;99.90;;;;;;4992527;28;20485;-79
2022/03/04 02:34:33;;;;;;;28.67;15.63;;;0.00;99.90;;;;;;4992480;28;20497;-79
2022/03/04 02:36:59;;;;;;;33.00;17.13;;;0.00;99.90;;;;;;4991517;28;20050;-79
2022/03/04 02:39:25;;;;;;;33.28;17.17;;;0.00;99.90;;;;;;4976460;28;20038;-79
2022/03/04 02:41:51;;;;;;;32.00;17.85;;;0.00;99.90;;;;;;4992223;28;20078;-79
2022/03/04 02:44:17;;;;;;;36.20;18.90;;;0.00;99.90;;;;;;4992409;28;20046;-79
2022/03/04 02:46:43;;;;;;;37.45;21.15;;;-0.10;99.90;;;;;;4975113;28;20030;-79
2022/03/04 02:49:10;;;;;;;35.95;19.85;;;-0.10;99.90;;;;;;4976295;28;20046;-79
2022/03/04 02:51:37;;;;;;;36.72;20.90;;;-0.30;99.90;;;;;;4990893;28;20412;-79
2022/03/04 02:54:04;;;;;;;41.97;21.40;;;-0.30;99.90;;;;;;5008931;28;20405;-79
2022/03/04 02:56:29;;;;;;;42.38;21.63;;;-0.30;99.90;;;;;;4992125;28;20133;-79
2022/03/04 02:58:55;;;;;;;45.90;23.48;;;-0.40;99.90;;;;;;4993305;28;20177;-79
2022/03/04 03:01:21;;;;;;;40.60;21.77;;;-0.30;99.90;;;;;;4979649;28;20050;-79
2022/03/04 03:03:47;;;;;;;38.13;18.67;;;-0.30;99.90;;;;;;4995683;28;20045;-79
2022/03/04 03:06:12;;;;;;;41.15;21.38;;;-0.30;99.90;;;;;;4995462;28;20041;-79
2022/03/04 03:08:38;;;;;;;42.40;21.42;;;-0.20;99.90;;;;;;4978715;28;20042;-79
2022/03/04 03:11:04;;;;;;;50.28;26.00;;;-0.30;99.90;;;;;;4995267;28;20043;-79
2022/03/04 03:13:31;;;;;;;40.05;20.52;;;-0.30;99.90;;;;;;4995405;28;20053;-79
2022/03/04 03:15:57;;;;;;;39.08;20.90;;;-0.30;99.90;;;;;;4979429;28;20042;-79
2022/03/04 03:18:22;;;;;;;44.00;22.40;;;-0.20;99.90;;;;;;4995308;28;20039;-79
2022/03/04 03:20:48;;;;;;;46.55;23.73;;;-0.20;99.90;;;;;;4979203;28;20049;-79
2022/03/04 03:23:14;;;;;;;44.85;23.15;;;-0.20;99.90;;;;;;4978608;28;20042;-79
2022/03/04 03:25:40;;;;;;;48.75;23.50;;;-0.30;99.90;;;;;;4995434;28;20038;-79
2022/03/04 03:28:06;;;;;;;45.78;23.60;;;-0.20;99.90;;;;;;4995246;28;20513;-79
2022/03/04 03:30:32;;;;;;;50.22;25.40;;;-0.30;99.90;;;;;;5011870;28;20043;-79
2022/03/04 03:32:58;;;;;;;46.63;24.60;;;-0.20;99.90;;;;;;4994962;28;20049;-79
2022/03/04 03:35:24;;;;;;;44.55;20.90;;;-0.20;99.90;;;;;;4995183;28;20065;-79
2022/03/04 03:37:50;;;;;;;50.60;27.35;;;-0.10;99.90;;;;;;4993925;28;20042;-79
2022/03/04 03:40:16;;;;;;;54.63;27.58;;;-0.20;99.90;;;;;;4978592;28;20042;-79
2022/03/04 03:42:42;;;;;;;45.13;24.23;;;-0.30;99.90;;;;;;4994442;28;20050;-79
2022/03/04 03:45:10;;;;;;;46.60;22.55;;;-0.30;99.90;;;;;;4994817;28;20046;-79
2022/03/04 03:47:38;;;;;;;41.55;22.17;;;-0.20;99.90;;;;;;4994562;28;20043;-79
2022/03/04 03:50:05;;;;;;;21.33;10.80;;;-0.10;99.90;;;;;;4994931;28;20114;-79
2022/03/04 03:52:31;;;;;;;40.30;20.67;;;-0.10;99.90;;;;;;4993640;28;20050;-79
2022/03/04 03:54:57;;;;;;;35.13;19.52;;;-0.10;99.90;;;;;;4994319;28;20050;-79
2022/03/04 03:57:23;;;;;;;26.30;13.38;;;-0.20;99.90;;;;;;4994330;28;20042;-79
2022/03/04 03:59:48;;;;;;;29.80;16.70;;;-0.20;99.90;;;;;;4978340;28;20050;-79
2022/03/04 04:02:14;;;;;;;32.05;16.73;;;-0.10;99.90;;;;;;4993978;28;20057;-79
2022/03/04 04:04:41;;;;;;;45.22;24.52;;;-0.20;99.90;;;;;;4978433;28;20046;-78
2022/03/04 04:07:12;;;;;;;38.17;20.58;;;-0.20;99.90;;;;;;4993421;28;20125;-78
2022/03/04 04:09:38;;;;;;;38.80;21.10;;;-0.30;99.90;;;;;;4977757;28;20537;-78
2022/03/04 04:12:04;;;;;;;34.83;18.77;;;-0.30;99.90;;;;;;4977455;28;20490;-78
2022/03/04 04:14:31;;;;;;;26.13;13.15;;;-0.30;99.90;;;;;;4994054;28;20050;-78
2022/03/04 04:16:57;;;;;;;40.70;19.85;;;-0.30;99.90;;;;;;4993846;28;20092;-79
2022/03/04 04:19:23;;;;;;;41.88;21.52;;;-0.30;99.90;;;;;;4994211;28;20042;-79
2022/03/04 04:21:50;;;;;;;37.33;20.35;;;-0.40;99.90;;;;;;4977235;28;20553;-80
2022/03/04 04:24:16;;;;;;;39.83;20.35;;;-0.20;99.90;;;;;;4993988;28;20042;-80
2022/03/04 04:26:42;;;;;;;43.35;22.35;;;-0.30;99.90;;;;;;4993917;28;20521;-80
2022/03/04 04:29:08;;;;;;;26.63;13.35;;;-0.30;99.90;;;;;;4993999;28;20080;-80
2022/03/04 04:31:35;;;;;;;31.33;15.60;;;-0.20;99.90;;;;;;5009884;28;20121;-80
2022/03/04 04:34:02;;;;;;;41.97;23.90;;;-0.30;99.90;;;;;;4993752;28;20047;-80
2022/03/04 04:36:28;;;;;;;38.45;18.70;;;-0.30;99.90;;;;;;4993101;28;20184;-80
2022/03/04 04:38:54;;;;;;;39.20;20.20;;;-0.40;99.90;;;;;;4991819;28;20054;-80
2022/03/04 04:41:20;;;;;;;24.83;9.95;;;-0.30;99.90;;;;;;4974349;28;20560;-80
2022/03/04 04:43:46;;;;;;;36.10;17.30;;;-0.30;99.90;;;;;;4992658;28;20077;-80
2022/03/04 04:46:11;;;;;;;39.97;20.25;;;-0.30;99.90;;;;;;4992437;28;20573;-80
2022/03/04 04:48:37;;;;;;;40.90;20.35;;;-0.30;99.90;;;;;;4992559;28;20042;-80
2022/03/04 04:51:04;;;;;;;33.80;16.50;;;-0.30;99.90;;;;;;4992580;28;20088;-80
2022/03/04 04:53:30;;;;;;;32.92;16.00;;;-0.20;99.90;;;;;;4992036;28;20039;-80
2022/03/04 04:55:56;;;;;;;26.00;13.23;;;-0.30;99.90;;;;;;4992770;28;20086;-80
2022/03/04 04:58:22;;;;;;;36.45;18.50;;;-0.30;99.90;;;;;;4977566;28;20046;-80
2022/03/04 05:00:53;;;;;;;25.50;12.25;;;-0.40;99.90;;;;;;4993466;28;20122;-80
2022/03/04 05:03:20;;;;;;;32.55;16.55;;;-0.30;99.90;;;;;;4977079;28;20042;-80
2022/03/04 05:05:46;;;;;;;46.25;23.70;;;-0.30;99.90;;;;;;4977543;28;20482;-80
2022/03/04 05:08:11;;;;;;;45.40;23.77;;;-0.40;99.90;;;;;;4976361;28;20045;-80
2022/03/04 05:10:38;;;;;;;49.83;26.27;;;-0.60;99.90;;;;;;4993333;28;20054;-80
2022/03/04 05:13:04;;;;;;;46.88;23.23;;;-0.60;99.90;;;;;;4976962;28;20042;-80
2022/03/04 05:15:29;;;;;;;37.65;17.83;;;-0.60;99.90;;;;;;4977272;28;20188;-80
2022/03/04 05:17:55;;;;;;;42.72;22.30;;;-0.50;99.90;;;;;;4977181;28;20038;-80
2022/03/04 05:20:21;;;;;;;38.25;20.27;;;-0.50;99.90;;;;;;4977108;28;20125;-80
2022/03/04 05:22:46;;;;;;;21.20;10.55;;;-0.40;99.90;;;;;;4992070;28;20038;-80
2022/03/04 05:25:13;;;;;;;32.80;16.40;;;-0.30;99.90;;;;;;4977082;28;20038;-80
2022/03/04 05:27:39;;;;;;;44.92;24.13;;;-0.30;99.90;;;;;;4977134;28;20482;-80
2022/03/04 05:30:06;;;;;;;39.10;21.13;;;-0.40;99.90;;;;;;4977130;28;20039;-80
2022/03/04 05:32:32;;;;;;;42.42;24.33;;;-0.50;99.90;;;;;;4993145;28;20042;-80
2022/03/04 05:34:58;;;;;;;45.25;22.48;;;-0.60;99.90;;;;;;4993138;28;20097;-80
2022/03/04 05:37:23;;;;;;;44.05;23.45;;;-0.50;99.90;;;;;;4976525;28;20509;-80
2022/03/04 05:39:49;;;;;;;48.80;24.50;;;-0.50;99.90;;;;;;4976866;28;20049;-80
2022/03/04 05:42:15;;;;;;;42.30;23.15;;;-0.60;99.90;;;;;;4976320;28;20108;-80
2022/03/04 05:44:41;;;;;;;41.45;21.13;;;-0.60;99.90;;;;;;4960652;28;20061;-80
2022/03/04 05:47:06;;;;;;;39.55;21.27;;;-0.40;99.90;;;;;;4975815;28;20042;-80
2022/03/04 05:49:32;;;;;;;37.00;18.58;;;-0.40;99.90;;;;;;4992505;28;20444;-80
2022/03/04 05:51:58;;;;;;;36.08;17.30;;;-0.40;99.90;;;;;;4975376;28;20050;-80
2022/03/04 05:54:24;;;;;;;34.25;17.63;;;-0.50;99.90;;;;;;4976373;28;20053;-80
2022/03/04 05:56:50;;;;;;;32.33;15.07;;;-0.40;99.90;;;;;;4992069;28;20205;-80
2022/03/04 05:59:16;;;;;;;35.60;17.50;;;-0.40;99.90;;;;;;4976312;28;20129;-80
2022/03/04 06:01:41;;;;;;;43.28;22.60;;;-0.40;99.90;;;;;;4992547;28;20133;-80
2022/03/04 06:04:07;;;;;;;42.63;22.00;;;-0.50;99.90;;;;;;4992510;28;20053;-80
2022/03/04 06:06:33;;;;;;;34.95;16.92;;;-0.30;99.90;;;;;;4991530;28;20048;-80
2022/03/04 06:08:59;;;;;;;31.75;15.82;;;-0.50;99.90;;;;;;4976181;28;20413;-80
2022/03/04 06:11:25;;;;;;;31.67;14.88;;;-0.40;99.90;;;;;;4993553;28;20038;-80
2022/03/04 06:13:51;;;;;;;32.45;15.77;;;-0.40;99.90;;;;;;4977489;28;20050;-80
2022/03/04 06:16:16;;;;;;;39.22;20.67;;;-0.50;99.90;;;;;;4977194;28;20043;-80
2022/03/04 06:18:42;;;;;;;37.58;17.92;;;-0.50;99.90;;;;;;4993447;28;20413;-80
2022/03/04 06:21:08;;;;;;;38.13;20.58;;;-0.50;99.90;;;;;;4977408;28;20050;-80
2022/03/04 06:23:34;;;;;;;41.95;20.75;;;-0.50;99.90;;;;;;4992504;28;20429;-80
2022/03/04 06:26:00;;;;;;;49.10;26.63;;;-0.50;99.90;;;;;;4977028;28;20038;-80
2022/03/04 06:28:26;;;;;;;47.65;24.85;;;-0.50;99.90;;;;;;4975871;28;20129;-80
2022/03/04 06:30:53;;;;;;;57.10;28.33;;;-0.50;99.90;;;;;;4976183;28;20035;-80
2022/03/04 06:33:35;;;;;;;54.25;28.25;;;-0.40;99.90;;;;;;4960111;28;20042;-80
2022/03/04 06:36:07;;;;;;;48.25;27.15;;;-0.60;99.90;;;;;;4980102;28;20112;-80
2022/03/04 06:38:35;;;;;;;50.28;28.20;;;-0.60;99.90;;;;;;4979022;28;20085;-80
2022/03/04 06:41:03;;;;;;;51.65;28.02;;;-0.60;99.90;;;;;;4979987;28;20082;-80
2022/03/04 06:43:29;;;;;;;57.17;29.73;;;-0.60;99.90;;;;;;4995844;28;20112;-79
2022/03/04 06:45:56;;;;;;;60.20;28.80;;;-0.60;99.90;;;;;;4996051;28;20042;-79
2022/03/04 06:48:22;;;;;;;48.40;23.80;;;-0.50;99.90;;;;;;4995627;28;20045;-79
2022/03/04 06:50:49;;;;;;;58.10;30.48;;;-0.50;99.90;;;;;;4995848;28;20507;-78
2022/03/04 06:53:15;;;;;;;57.90;27.98;;;-0.40;99.90;;;;;;4994762;28;20038;-78
2022/03/04 06:55:41;;;;;;;53.60;27.30;;;-0.50;99.90;;;;;;4995241;28;20062;-78
2022/03/04 06:58:07;;;;;;;52.35;26.83;;;-0.40;99.90;;;;;;4979153;28;20057;-78
2022/03/04 07:00:33;;;;;;;48.50;25.23;;;-0.30;99.90;;;;;;4995455;28;20039;-78
2022/03/04 07:02:59;;;;;;;49.85;25.00;;;-0.30;99.90;;;;;;4979158;28;20132;-78
2022/03/04 07:05:25;;;;;;;51.53;27.67;;;-0.30;99.90;;;;;;4979064;28;20030;-79
2022/03/04 07:07:52;;;;;;;53.33;26.67;;;-0.30;99.90;;;;;;4978116;28;20049;-78
2022/03/04 07:10:18;;;;;;;52.22;27.65;;;-0.30;99.90;;;;;;4979042;28;20038;-78
2022/03/04 07:12:45;;;;;;;52.33;26.10;;;-0.30;99.90;;;;;;4975496;28;20081;-78
2022/03/04 07:15:11;;;;;;;49.45;24.25;;;-0.20;99.90;;;;;;4997797;28;20037;-78
2022/03/04 07:17:37;;;;;;;53.42;26.15;;;-0.20;99.90;;;;;;4998363;28;20092;-79
2022/03/04 07:20:04;;;;;;;47.53;22.70;;;-0.30;99.90;;;;;;5014708;28;20081;-80
2022/03/04 07:22:30;;;;;;;41.03;19.88;;;-0.20;99.90;;;;;;4998039;28;20100;-80
2022/03/04 07:24:55;;;;;;;35.38;18.50;;;0.00;99.90;;;;;;4998582;28;20437;-82
2022/03/04 07:27:21;;;;;;;47.67;24.40;;;0.40;99.90;;;;;;5015042;28;20489;-82
2022/03/04 07:29:47;;;;;;;42.45;23.30;;;-0.20;99.90;;;;;;5015044;28;20049;-82
2022/03/04 07:32:13;;;;;;;50.78;27.23;;;0.20;99.90;;;;;;4985291;28;20042;-81
2022/03/04 07:34:38;;;;;;;41.40;21.50;;;-0.30;99.90;;;;;;4975959;28;20045;-80
2022/03/04 07:37:05;;;;;;;47.47;25.40;;;-0.20;99.90;;;;;;4958819;28;20047;-80
2022/03/04 07:39:31;;;;;;;44.03;23.60;;;-0.20;99.90;;;;;;5030141;28;20049;-80
2022/03/04 07:41:57;;;;;;;45.83;24.92;;;-0.20;99.90;;;;;;4998302;28;20030;-80
2022/03/04 07:44:23;;;;;;;46.47;23.27;;;-0.10;99.90;;;;;;5014188;28;20046;-79
2022/03/04 07:46:49;;;;;;;50.03;27.77;;;-0.10;99.90;;;;;;5001616;28;20397;-80
2022/03/04 07:49:15;;;;;;;45.42;26.00;;;-0.10;99.90;;;;;;4977672;28;20039;-80
2022/03/04 07:51:41;;;;;;;44.55;24.15;;;-0.10;99.90;;;;;;4977204;28;20042;-80
2022/03/04 07:54:07;;;;;;;38.63;20.60;;;0.00;99.90;;;;;;4994748;28;20121;-81
2022/03/04 07:56:33;;;;;;;25.63;11.75;;;0.00;99.90;;;;;;4973573;28;20051;-78
2022/03/04 07:58:59;;;;;;;29.83;15.77;;;0.00;99.90;;;;;;4977775;28;20050;-78
2022/03/04 08:01:25;;;;;;;35.15;18.02;;;0.00;99.90;;;;;;4977714;28;20401;-78
2022/03/04 08:03:50;;;;;;;35.83;19.58;;;0.00;99.90;;;;;;4977532;28;20039;-78
2022/03/04 08:06:16;;;;;;;36.67;20.58;;;0.00;99.90;;;;;;4961539;28;20113;-80
2022/03/04 08:08:42;;;;;;;29.13;14.20;;;0.10;99.90;;;;;;5010632;28;20038;-79
2022/03/04 08:11:08;;;;;;;38.90;19.88;;;0.00;99.90;;;;;;4993894;28;20046;-79
2022/03/04 08:13:34;;;;;;;20.77;10.88;;;0.10;99.90;;;;;;4976783;28;20133;-79
2022/03/04 08:16:00;;;;;;;32.55;18.27;;;0.10;99.90;;;;;;4992985;28;20129;-79
2022/03/04 08:18:26;;;;;;;36.38;17.63;;;0.10;99.90;;;;;;4975044;28;20078;-79
2022/03/04 08:20:53;;;;;;;42.13;23.60;;;0.00;99.90;;;;;;4973623;28;20089;-79
2022/03/04 08:23:18;;;;;;;47.17;24.27;;;0.00;99.90;;;;;;4975540;28;20034;-79
2022/03/04 08:25:44;;;;;;;42.50;21.98;;;0.00;99.90;;;;;;4976431;28;20040;-79
2022/03/04 08:28:10;;;;;;;39.40;21.92;;;0.10;99.90;;;;;;4976220;28;20494;-79
2022/03/04 08:30:36;;;;;;;41.03;21.88;;;0.20;99.90;;;;;;4976095;28;20034;-79
2022/03/04 08:33:02;;;;;;;39.42;21.27;;;0.20;99.90;;;;;;4992486;28;20108;-78
2022/03/04 08:35:28;;;;;;;44.08;23.20;;;0.20;99.90;;;;;;4992460;28;20042;-78
2022/03/04 08:37:55;;;;;;;37.60;19.67;;;0.30;99.90;;;;;;4992629;28;20559;-78
2022/03/04 08:40:22;;;;;;;32.72;16.35;;;0.40;99.90;;;;;;4984678;28;20428;-78
2022/03/04 08:42:48;;;;;;;33.33;18.25;;;0.50;99.90;;;;;;4975048;28;20054;-78
2022/03/04 08:45:14;;;;;;;38.38;19.52;;;0.80;99.90;;;;;;4992750;28;20057;-78
2022/03/04 08:47:43;;;;;;;32.08;17.38;;;0.40;99.90;;;;;;5002092;28;20042;-79
2022/03/04 08:50:11;;;;;;;34.85;18.90;;;0.50;99.90;;;;;;5013848;28;20041;-79
2022/03/04 08:52:37;;;;;;;35.67;19.10;;;0.60;99.90;;;;;;4998534;28;20042;-79
2022/03/04 08:55:05;;;;;;;22.27;12.38;;;0.50;99.90;;;;;;5004382;28;20053;-79
2022/03/04 08:57:31;;;;;;;36.45;21.33;;;0.60;99.90;;;;;;4997814;28;20125;-79
2022/03/04 08:59:57;;;;;;;34.90;18.50;;;0.70;99.90;;;;;;4995555;28;20050;-79
2022/03/04 09:02:23;;;;;;;40.00;21.10;;;0.60;99.90;;;;;;5000552;28;20048;-79
2022/03/04 09:04:50;;;;;;;39.38;21.05;;;0.70;99.90;;;;;;5006244;28;20535;-79
2022/03/04 09:07:16;;;;;;;36.47;18.45;;;1.70;99.90;;;;;;4996642;28;20117;-79
2022/03/04 09:09:43;;;;;;;37.55;20.33;;;0.80;99.90;;;;;;5012372;28;20042;-79
2022/03/04 09:12:09;;;;;;;38.53;20.63;;;0.80;99.90;;;;;;5012697;28;20098;-79
2022/03/04 09:14:38;;;;;;;41.92;22.95;;;0.80;99.90;;;;;;5013569;28;20040;-79
2022/03/04 09:17:04;;;;;;;35.67;18.85;;;0.80;99.90;;;;;;5000450;28;20042;-79
2022/03/04 09:19:34;;;;;;;33.63;17.98;;;1.00;99.90;;;;;;4993938;28;20034;-79
2022/03/04 09:22:00;;;;;;;28.70;14.38;;;1.50;99.90;;;;;;4979959;28;20049;-79
2022/03/04 09:24:25;;;;;;;33.45;19.77;;;1.20;99.90;;;;;;5007136;28;20046;-80
2022/03/04 09:26:53;;;;;;;23.63;11.40;;;1.30;99.90;;;;;;5009221;28;20038;-82
2022/03/04 09:29:22;;;;;;;35.80;20.95;;;1.60;99.90;;;;;;4988988;28;20396;-81
2022/03/04 09:31:47;;;;;;;27.80;13.02;;;1.80;99.90;;;;;;4997448;28;20038;-81
2022/03/04 09:34:13;;;;;;;33.03;18.08;;;1.80;99.90;;;;;;5005945;28;20049;-81
2022/03/04 09:36:39;;;;;;;39.50;23.27;;;1.70;99.90;;;;;;4967083;28;20057;-81
2022/03/04 09:39:06;;;;;;;33.17;17.92;;;1.70;99.90;;;;;;4992860;28;20405;-80
2022/03/04 09:41:32;;;;;;;38.30;20.83;;;1.90;99.90;;;;;;4986904;28;20077;-80
2022/03/04 09:43:58;;;;;;;36.88;22.48;;;2.00;99.90;;;;;;4984197;28;20042;-80
2022/03/04 09:46:24;;;;;;;35.42;20.75;;;2.00;99.90;;;;;;5004697;28;20038;-80
2022/03/04 09:48:52;;;;;;;34.80;21.73;;;2.20;99.90;;;;;;5005234;28;20042;-80
2022/03/04 09:51:18;;;;;;;27.30;14.50;;;2.40;99.90;;;;;;5012378;28;20045;-79
2022/03/04 09:53:45;;;;;;;31.02;17.25;;;2.70;99.90;;;;;;4992700;28;20044;-79
2022/03/04 09:56:13;;;;;;;31.80;18.25;;;4.00;99.90;;;;;;4992824;28;20058;-79
2022/03/04 09:58:39;;;;;;;31.17;19.60;;;3.10;99.90;;;;;;5002566;28;20061;-79
2022/03/04 10:01:12;;;;;;;33.58;21.13;;;3.20;99.90;;;;;;4994883;28;20050;-79
2022/03/04 10:03:44;;;;;;;30.25;18.05;;;3.50;99.90;;;;;;5013455;28;20053;-80
2022/03/04 10:06:10;;;;;;;34.30;20.98;;;3.70;99.90;;;;;;5004525;28;20034;-80
2022/03/04 10:08:43;;;;;;;28.48;17.58;;;3.90;99.90;;;;;;5025376;28;20081;-80
2022/03/04 10:11:09;;;;;;;28.88;18.42;;;4.00;99.90;;;;;;5012662;28;20049;-78
2022/03/04 10:13:53;;;;;;;29.05;15.43;;;4.10;99.90;;;;;;5010576;28;20034;-79
2022/03/04 10:16:28;;;;;;;29.55;18.85;;;5.00;99.90;;;;;;5005771;28;20053;-78
2022/03/04 10:19:13;;;;;;;36.30;22.33;;;4.10;99.90;;;;;;5003269;28;20193;-79
2022/03/04 10:21:56;;;;;;;33.55;20.92;;;4.10;99.90;;;;;;5015352;28;20105;-79
2022/03/04 10:24:42;;;;;;;31.73;19.33;;;4.30;99.90;;;;;;5021851;28;20437;-79
2022/03/04 10:27:13;;;;;;;32.97;20.55;;;4.50;99.90;;;;;;5014550;28;20134;-79
2022/03/04 10:29:47;;;;;;;30.35;20.00;;;4.50;99.90;;;;;;4994187;28;20085;-79
2022/03/04 10:32:22;;;;;;;31.85;20.08;;;4.50;99.90;;;;;;5014262;28;20045;-79
2022/03/04 10:34:57;;;;;;;31.30;21.65;;;4.60;99.90;;;;;;5003649;28;20097;-79
2022/03/04 10:37:39;;;;;;;32.88;21.95;;;4.70;99.90;;;;;;4988339;28;20046;-79
2022/03/04 10:40:13;;;;;;;31.93;21.70;;;4.80;99.90;;;;;;5012411;28;20120;-79
2022/03/04 10:42:40;;;;;;;33.10;22.48;;;4.90;99.90;;;;;;5004880;28;20348;-79
2022/03/04 10:45:21;;;;;;;31.20;20.67;;;5.00;99.90;;;;;;5008328;28;20034;-79
2022/03/04 10:47:56;;;;;;;30.63;20.90;;;5.20;99.90;;;;;;5011510;28;20069;-79
2022/03/04 10:50:39;;;;;;;32.80;20.13;;;5.40;99.90;;;;;;5024719;28;20528;-79
2022/03/04 10:53:06;;;;;;;32.47;19.65;;;5.60;99.90;;;;;;5017605;28;20489;-79
2022/03/04 10:55:41;;;;;;;32.60;21.60;;;5.50;99.90;;;;;;4989965;28;20054;-79
2022/03/04 10:58:21;;;;;;;29.67;18.63;;;5.40;99.90;;;;;;4991538;28;20364;-79
2022/03/04 11:01:02;;;;;;;32.83;20.88;;;5.50;99.90;;;;;;4990977;28;20105;-79
2022/03/04 11:03:30;;;;;;;33.10;22.03;;;5.60;99.90;;;;;;4994831;28;20109;-79
2022/03/04 11:05:58;;;;;;;30.27;19.40;;;5.70;99.90;;;;;;5003369;28;20035;-79
2022/03/04 11:08:24;;;;;;;28.17;17.17;;;5.60;99.90;;;;;;5005737;28;20042;-79
2022/03/04 11:10:51;;;;;;;31.75;21.05;;;5.70;99.90;;;;;;5010329;28;20035;-79
2022/03/04 11:13:17;;;;;;;31.25;21.15;;;5.70;99.90;;;;;;5007197;28;20440;-79
2022/03/04 11:15:45;;;;;;;29.65;20.20;;;5.60;99.90;;;;;;4994891;28;20133;-79
2022/03/04 11:18:14;;;;;;;28.98;19.90;;;5.80;99.90;;;;;;4997730;28;20044;-79
2022/03/04 11:20:42;;;;;;;28.83;19.58;;;6.00;99.90;;;;;;5013146;28;20112;-79
2022/03/04 11:23:10;;;;;;;26.20;18.02;;;6.10;99.90;;;;;;5015773;28;20105;-79
2022/03/04 11:25:41;;;;;;;30.20;21.70;;;6.20;99.90;;;;;;5013254;28;20391;-79
2022/03/04 11:28:18;;;;;;;28.08;19.65;;;6.20;99.90;;;;;;5022562;28;20045;-79
2022/03/04 11:30:46;;;;;;;27.27;18.77;;;6.40;99.90;;;;;;5015948;28;20049;-79
2022/03/04 11:33:20;;;;;;;27.58;18.67;;;6.50;99.90;;;;;;5005990;28;20073;-79
2022/03/04 11:36:05;;;;;;;29.05;19.77;;;6.60;99.90;;;;;;5011609;28;20055;-79
2022/03/04 11:38:46;;;;;;;28.02;19.27;;;6.70;99.80;;;;;;4991400;28;20493;-79
2022/03/04 11:41:37;;;;;;;25.60;15.32;;;6.80;99.30;;;;;;5012824;28;20042;-79
2022/03/04 11:44:15;;;;;;;22.75;14.65;;;7.00;97.50;;;;;;4990765;28;20038;-79
2022/03/04 11:46:44;;;;;;;23.20;16.17;;;7.10;96.20;;;;;;5013146;28;20048;-79
2022/03/04 11:49:28;;;;;;;22.15;13.48;;;7.10;99.90;;;;;;5008740;28;20070;-79
2022/03/04 11:52:09;;;;;;;21.85;14.38;;;7.20;95.50;;;;;;5029386;28;20038;-79
2022/03/04 11:54:38;;;;;;;21.70;14.15;;;7.30;96.60;;;;;;5005694;28;20046;-79
2022/03/04 11:57:28;;;;;;;22.58;13.75;;;7.20;94.80;;;;;;4997455;28;20058;-79
2022/03/04 11:59:56;;;;;;;21.27;14.18;;;7.30;94.10;;;;;;4997526;28;20042;-79
2022/03/04 12:02:27;;;;;;;19.75;14.30;;;7.30;94.90;;;;;;5009865;28;20047;-79
2022/03/04 12:05:28;;;;;;;19.30;13.63;;;7.40;96.40;;;;;;4990564;28;20046;-79
2022/03/04 12:07:57;;;;;;;19.20;13.65;;;7.60;95.80;;;;;;5007739;28;20281;-79
2022/03/04 12:10:24;;;;;;;17.77;12.32;;;7.70;95.70;;;;;;4997950;28;20034;-79
2022/03/04 12:13:11;;;;;;;15.68;9.80;;;7.90;93.90;;;;;;4993429;28;20042;-79
2022/03/04 12:15:44;;;;;;;15.65;9.10;;;8.10;91.50;;;;;;4999113;28;20044;-79
2022/03/04 12:18:26;;;;;;;16.85;11.10;;;8.10;90.00;;;;;;5017723;28;20038;-80
2022/03/04 12:20:55;;;;;;;;;;;8.00;86.50;;;;;;4995651;28;20053;-80
2022/03/04 12:23:44;;;;;;;15.80;9.32;;;8.00;84.50;;;;;;5015092;28;19961;-80
2022/03/04 12:26:23;;;;;;;13.70;8.40;;;8.00;92.40;;;;;;4993714;28;20052;-80
2022/03/04 12:29:02;;;;;;;13.75;8.00;;;8.10;86.50;;;;;;5017990;28;20134;-80
2022/03/04 12:31:30;;;;;;;15.25;9.50;;;8.20;85.20;;;;;;5012625;28;20096;-80
2022/03/04 12:33:58;;;;;;;13.38;7.45;;;8.30;90.60;;;;;;4993667;28;20567;-79
2022/03/04 12:36:26;;;;;;;14.25;8.57;;;8.30;84.90;;;;;;5010177;28;20041;-79